Time;durP1;ratioP1;P1;durP2;ratioP2;P2;SDS_P1;SDS_P2;PMS_P1;PMS_P2;Temp;Humidity;BMP_temperature;BMP_pressure;BME280_temperature;BME280_humidity;BME280_pressure;Samples;Min_cycle;Max_cycle;Signal;HPM_P1;HPM_P2
2021/05/01 00:00:52;;;;;;;9.75;8.65;;;;;;;13.17;100.00;99329.06;1774929;80;21200;-66
2021/05/01 00:03:19;;;;;;;9.55;8.10;;;;;;;13.16;100.00;99329.33;1734841;81;21152;-66
2021/05/01 00:05:47;;;;;;;9.83;8.60;;;;;;;13.15;100.00;99323.66;1743987;82;21189;-67
2021/05/01 00:08:14;;;;;;;10.75;8.68;;;;;;;13.16;100.00;99319.33;1763068;81;21173;-67
2021/05/01 00:10:42;;;;;;;13.30;9.85;;;;;;;13.17;100.00;99325.01;1763157;81;21488;-67
2021/05/01 00:13:11;;;;;;;12.65;9.68;;;;;;;13.20;100.00;99327.69;1749406;81;21596;-67
2021/05/01 00:15:38;;;;;;;11.88;9.58;;;;;;;13.19;100.00;99327.45;1755144;81;21173;-66
2021/05/01 00:18:06;;;;;;;18.37;9.85;;;;;;;13.18;99.96;99324.47;1764735;80;21149;-67
2021/05/01 00:20:34;;;;;;;19.57;11.70;;;;;;;13.17;99.79;99330.95;1763134;81;21121;-69
2021/05/01 00:23:02;;;;;;;10.98;9.28;;;;;;;13.14;99.66;99338.27;1763227;81;21100;-66
2021/05/01 00:25:31;;;;;;;11.18;9.83;;;;;;;13.13;99.71;99319.09;1763097;81;21369;-67
2021/05/01 00:27:59;;;;;;;11.28;9.73;;;;;;;13.12;99.77;99325.56;1744847;80;21197;-70
2021/05/01 00:30:27;;;;;;;12.58;10.28;;;;;;;13.16;99.78;99332.02;1744777;81;21165;-65
2021/05/01 00:32:56;;;;;;;11.88;9.15;;;;;;;13.18;99.54;99336.63;1744316;80;21126;-69
2021/05/01 00:35:24;;;;;;;9.78;8.78;;;;;;;13.17;99.38;99335.00;1744092;82;21393;-65
2021/05/01 00:37:54;;;;;;;12.90;10.85;;;;;;;13.13;99.21;99330.70;1744153;82;21737;-65
2021/05/01 00:40:24;;;;;;;10.03;8.73;;;;;;;13.11;99.26;99334.20;1752340;80;21190;-66
2021/05/01 00:42:51;;;;;;;14.70;9.33;;;;;;;13.08;99.30;99327.98;1763279;81;21117;-63
2021/05/01 00:45:19;;;;;;;10.82;9.55;;;;;;;13.07;99.50;99334.45;1774800;80;21154;-64
2021/05/01 00:47:47;;;;;;;11.83;10.10;;;;;;;13.08;99.63;99332.84;1741882;81;21485;-63
2021/05/01 00:50:16;;;;;;;11.68;9.10;;;;;;;13.07;99.56;99340.67;1744023;82;21587;-65
2021/05/01 00:52:43;;;;;;;12.82;10.45;;;;;;;13.07;99.49;99346.61;1732857;82;21601;-64
2021/05/01 00:55:14;;;;;;;12.00;10.08;;;;;;;13.08;99.52;99349.04;1755834;80;21020;-69
2021/05/01 00:57:43;;;;;;;13.18;10.23;;;;;;;13.08;99.51;99344.18;1761185;81;21172;-69
2021/05/01 01:02:49;;;;;;;11.63;10.48;;;;;;;13.09;99.50;99347.16;1792572;80;21247;-63
2021/05/01 01:05:17;;;;;;;14.85;11.22;;;;;;;13.09;99.38;99346.59;1792548;80;21153;-68
2021/05/01 01:07:46;;;;;;;11.28;9.75;;;;;;;13.08;99.30;99350.39;1792536;80;20979;-69
2021/05/01 01:10:15;;;;;;;15.03;10.48;;;;;;;13.10;99.17;99350.09;1789278;79;21570;-68
2021/05/01 01:12:42;;;;;;;12.58;10.20;;;;;;;13.10;99.09;99352.80;1738069;81;21149;-67
2021/05/01 01:15:13;;;;;;;14.53;10.48;;;;;;;13.09;98.79;99350.63;1763214;81;21223;-69
2021/05/01 01:17:41;;;;;;;11.50;9.73;;;;;;;13.05;98.73;99346.88;1749490;80;21197;-68
2021/05/01 01:20:34;;;;;;;10.10;8.95;;;;;;;13.02;98.74;99354.18;1781976;80;21317;-68
2021/05/01 01:23:02;;;;;;;10.28;8.30;;;;;;;13.00;98.73;99359.56;1673720;85;21060;-67
2021/05/01 01:25:30;;;;;;;14.68;10.93;;;;;;;12.94;98.94;99365.55;1659336;86;21198;-67
2021/05/01 01:28:00;;;;;;;17.67;11.05;;;;;;;12.91;99.13;99363.91;1673637;85;21193;-69
2021/05/01 01:30:30;;;;;;;11.40;10.28;;;;;;;12.89;99.20;99376.89;1671691;85;21186;-69
2021/05/01 01:33:03;;;;;;;13.90;9.70;;;;;;;12.83;99.24;99374.73;1683533;85;21186;-68
2021/05/01 01:35:32;;;;;;;15.88;10.48;;;;;;;12.77;99.27;99373.65;1701249;84;21152;-68
2021/05/01 01:37:59;;;;;;;11.12;10.03;;;;;;;12.72;99.70;99378.52;1697934;84;21833;-67
2021/05/01 01:40:29;;;;;;;16.62;10.82;;;;;;;12.69;99.86;99379.06;1657909;86;21206;-68
2021/05/01 01:42:57;;;;;;;13.13;11.80;;;;;;;12.66;99.87;99387.71;1658020;86;21669;-67
2021/05/01 01:45:29;;;;;;;13.65;11.05;;;;;;;12.62;99.80;99386.61;1657847;86;21179;-67
2021/05/01 01:47:59;;;;;;;14.68;11.15;;;;;;;12.58;99.75;99396.33;1641634;86;21195;-67
2021/05/01 01:50:27;;;;;;;15.60;10.90;;;;;;;12.54;99.76;99392.02;1680514;84;21625;-65
2021/05/01 01:52:55;;;;;;;12.70;9.68;;;;;;;12.53;99.87;99393.63;1677814;85;21206;-66
2021/05/01 01:55:23;;;;;;;15.43;11.20;;;;;;;12.54;100.00;99394.72;1657072;86;21220;-66
2021/05/01 01:57:51;;;;;;;14.83;11.00;;;;;;;12.54;100.00;99392.55;1643257;87;21171;-65
2021/05/01 02:00:29;;;;;;;15.38;12.25;;;;;;;12.50;100.00;99400.39;1670888;85;21147;-65
2021/05/01 02:02:57;;;;;;;12.53;11.30;;;;;;;12.49;99.99;99397.95;1655292;86;21195;-68
2021/05/01 02:05:25;;;;;;;17.77;11.75;;;;;;;12.49;100.00;99406.04;1655970;86;21216;-66
2021/05/01 02:07:57;;;;;;;16.67;11.97;;;;;;;12.52;100.00;99409.53;1656254;86;21195;-66
2021/05/01 02:10:25;;;;;;;13.98;12.45;;;;;;;12.53;100.00;99407.93;1654565;85;21221;-67
2021/05/01 02:12:53;;;;;;;15.70;12.73;;;;;;;12.52;100.00;99413.58;1654854;85;21148;-65
2021/05/01 02:15:23;;;;;;;18.27;12.73;;;;;;;12.49;100.00;99416.83;1654348;86;21204;-64
2021/05/01 02:17:54;;;;;;;13.45;11.55;;;;;;;12.46;100.00;99420.08;1663710;85;21373;-65
2021/05/01 02:20:28;;;;;;;12.18;10.82;;;;;;;12.46;100.00;99424.94;1655078;86;21163;-65
2021/05/01 02:22:57;;;;;;;16.97;12.25;;;;;;;12.48;100.00;99427.34;1677587;83;21169;-66
2021/05/01 02:25:25;;;;;;;14.30;11.93;;;;;;;12.50;100.00;99434.11;1677508;85;21164;-66
2021/05/01 02:27:53;;;;;;;14.98;12.28;;;;;;;12.53;100.00;99432.74;1682793;85;21128;-66
2021/05/01 02:30:23;;;;;;;14.50;12.82;;;;;;;12.52;100.00;99436.52;1682707;85;21170;-65
2021/05/01 02:32:51;;;;;;;14.75;11.83;;;;;;;12.52;100.00;99426.53;1699350;83;21171;-64
2021/05/01 02:35:26;;;;;;;14.05;12.43;;;;;;;12.55;100.00;99431.95;1685309;83;21160;-65
2021/05/01 02:37:54;;;;;;;15.43;13.32;;;;;;;12.59;100.00;99434.38;1649131;87;21145;-66
2021/05/01 02:40:21;;;;;;;17.85;15.15;;;;;;;12.59;100.00;99435.19;1678017;85;21175;-65
2021/05/01 02:42:49;;;;;;;17.65;15.15;;;;;;;12.60;100.00;99435.47;1652877;86;21214;-66
2021/05/01 02:45:19;;;;;;;17.95;14.53;;;;;;;12.60;100.00;99433.30;1683043;85;21894;-66
2021/05/01 02:47:48;;;;;;;16.82;14.43;;;;;;;12.61;100.00;99430.88;1662572;86;21191;-65
2021/05/01 02:50:17;;;;;;;16.60;14.33;;;;;;;12.61;100.00;99438.41;1677253;85;21163;-66
2021/05/01 02:52:45;;;;;;;16.77;13.90;;;;;;;12.63;100.00;99434.91;1687636;83;21192;-63
2021/05/01 02:55:13;;;;;;;17.80;14.87;;;;;;;12.66;100.00;99434.36;1714690;83;21389;-67
2021/05/01 02:57:41;;;;;;;18.45;15.80;;;;;;;12.68;100.00;99439.50;1709688;84;21601;-65
2021/05/01 03:00:16;;;;;;;21.50;15.10;;;;;;;12.68;100.00;99438.96;1691520;84;21183;-65
2021/05/01 03:02:44;;;;;;;17.42;14.23;;;;;;;12.67;100.00;99440.03;1677937;83;21473;-66
2021/05/01 03:05:14;;;;;;;19.00;14.68;;;;;;;12.68;100.00;99438.15;1677957;85;21604;-64
2021/05/01 03:07:42;;;;;;;21.62;16.73;;;;;;;12.68;100.00;99448.41;1677763;85;21199;-64
2021/05/01 03:10:21;;;;;;;19.85;15.90;;;;;;;12.71;100.00;99442.22;1678416;83;21131;-67
2021/05/01 03:12:49;;;;;;;20.00;16.10;;;;;;;12.74;100.00;99454.63;1681618;83;21199;-64
2021/05/01 03:15:18;;;;;;;24.10;15.25;;;;;;;12.75;100.00;99458.95;1711995;83;21231;-65
2021/05/01 03:17:47;;;;;;;19.57;16.15;;;;;;;12.76;100.00;99464.59;1711842;83;21188;-67
2021/05/01 03:20:15;;;;;;;19.20;16.87;;;;;;;12.78;100.00;99459.75;1697666;83;21230;-66
2021/05/01 03:22:43;;;;;;;20.75;15.88;;;;;;;12.85;100.00;99469.75;1711385;82;21584;-67
2021/05/01 03:25:13;;;;;;;18.95;15.38;;;;;;;12.93;100.00;99472.44;1713216;83;21187;-65
2021/05/01 03:27:41;;;;;;;20.57;15.75;;;;;;;12.98;100.00;99472.44;1712854;83;21120;-65
2021/05/01 03:30:12;;;;;;;18.92;15.08;;;;;;;12.99;99.69;99464.61;1701196;83;21657;-65
2021/05/01 03:32:40;;;;;;;18.52;16.55;;;;;;;13.01;99.42;99471.88;1683427;83;22354;-65
2021/05/01 03:35:09;;;;;;;19.42;15.03;;;;;;;13.00;99.10;99472.41;1688544;83;21053;-65
2021/05/01 03:37:38;;;;;;;22.75;16.23;;;;;;;13.02;98.87;99478.91;1686029;83;21594;-66
2021/05/01 03:40:08;;;;;;;18.48;14.47;;;;;;;13.05;98.60;99483.75;1679066;85;21243;-64
2021/05/01 03:42:36;;;;;;;19.30;16.70;;;;;;;13.04;97.98;99489.69;1710660;83;21195;-64
2021/05/01 03:45:05;;;;;;;21.37;15.70;;;;;;;12.99;97.53;99495.12;1712063;82;21215;-65
2021/05/01 03:47:33;;;;;;;15.25;13.65;;;;;;;12.98;97.53;99486.74;1667991;86;21181;-64
2021/05/01 03:50:01;;;;;;;16.90;15.18;;;;;;;12.97;97.62;99491.86;1655722;85;21102;-65
2021/05/01 03:52:29;;;;;;;18.02;15.53;;;;;;;12.96;97.63;99495.64;1658197;85;21208;-66
2021/05/01 03:54:57;;;;;;;18.67;15.32;;;;;;;12.96;97.62;99502.92;1671333;85;21205;-66
2021/05/01 03:57:26;;;;;;;22.25;17.05;;;;;;;12.95;97.55;99500.77;1675791;85;21262;-66
2021/05/01 03:59:54;;;;;;;17.85;15.45;;;;;;;12.94;97.63;99512.66;1675883;84;21196;-65
2021/05/01 04:02:23;;;;;;;20.40;15.25;;;;;;;12.92;97.65;99505.36;1653953;85;21205;-64
2021/05/01 04:04:51;;;;;;;21.27;15.83;;;;;;;12.94;97.77;99507.27;1653982;86;21674;-66
2021/05/01 04:07:19;;;;;;;20.00;14.95;;;;;;;12.97;97.83;99511.30;1654001;86;21181;-65
2021/05/01 04:09:47;;;;;;;15.20;12.40;;;;;;;13.01;97.79;99514.53;1653980;86;23076;-66
2021/05/01 04:12:14;;;;;;;17.75;14.07;;;;;;;13.03;97.49;99513.74;1653920;85;21172;-66
2021/05/01 04:14:42;;;;;;;18.67;14.83;;;;;;;13.03;97.40;99516.44;1651379;86;21665;-66
2021/05/01 04:17:10;;;;;;;20.05;13.75;;;;;;;13.05;97.45;99527.77;1651330;86;21235;-66
2021/05/01 04:19:40;;;;;;;16.02;13.88;;;;;;;13.10;97.41;99530.47;1653463;86;21196;-67
2021/05/01 04:22:08;;;;;;;19.27;14.33;;;;;;;13.18;97.32;99544.02;1651036;86;21410;-66
2021/05/01 04:24:36;;;;;;;16.90;15.08;;;;;;;13.23;97.10;99540.50;1653678;86;21703;-69
2021/05/01 04:27:05;;;;;;;17.25;13.40;;;;;;;13.29;97.07;99539.40;1653648;86;21144;-67
2021/05/01 04:29:34;;;;;;;19.27;14.85;;;;;;;13.34;96.64;99545.61;1640075;86;21194;-67
2021/05/01 04:32:01;;;;;;;14.38;12.45;;;;;;;13.35;96.32;99543.19;1630007;88;21209;-67
2021/05/01 04:34:31;;;;;;;16.27;12.37;;;;;;;13.39;96.30;99546.15;1654794;86;21214;-68
2021/05/01 04:37:00;;;;;;;17.87;15.83;;;;;;;13.42;96.20;99553.19;1633095;86;21500;-67
2021/05/01 04:39:29;;;;;;;18.12;13.55;;;;;;;13.47;96.18;99552.37;1639114;86;21217;-66
2021/05/01 04:41:56;;;;;;;19.02;14.05;;;;;;;13.52;96.06;99553.15;1642435;86;21239;-67
2021/05/01 04:44:25;;;;;;;14.98;13.15;;;;;;;13.57;96.10;99548.31;1628583;88;21177;-66
2021/05/01 04:46:53;;;;;;;19.98;12.20;;;;;;;13.62;95.99;99540.16;1642292;86;21161;-66
2021/05/01 04:49:22;;;;;;;16.62;13.88;;;;;;;13.67;95.86;99547.48;1634309;86;21209;-70
2021/05/01 04:51:50;;;;;;;17.25;13.13;;;;;;;13.70;95.89;99542.33;1630081;87;21181;-67
2021/05/01 04:54:17;;;;;;;18.50;15.45;;;;;;;13.77;95.87;99545.55;1635246;86;21244;-67
2021/05/01 04:56:45;;;;;;;17.25;14.80;;;;;;;13.88;95.86;99545.80;1641336;86;21249;-66
2021/05/01 04:59:14;;;;;;;17.12;13.75;;;;;;;14.00;95.65;99543.34;1643112;86;22125;-67
2021/05/01 05:01:41;;;;;;;15.38;12.65;;;;;;;14.08;95.13;99552.22;1643697;87;21193;-67
2021/05/01 05:04:09;;;;;;;16.67;13.72;;;;;;;14.13;94.83;99548.96;1643630;87;21654;-66
2021/05/01 05:06:37;;;;;;;15.85;13.00;;;;;;;14.17;94.65;99541.09;1642795;87;21169;-66
2021/05/01 05:09:06;;;;;;;18.25;14.75;;;;;;;14.24;94.29;99537.02;1643734;87;21205;-66
2021/05/01 05:11:34;;;;;;;19.62;14.05;;;;;;;14.31;94.12;99538.87;1643226;87;21439;-67
2021/05/01 05:14:02;;;;;;;17.25;14.28;;;;;;;14.39;93.62;99540.20;1642705;86;21766;-67
2021/05/01 05:16:30;;;;;;;17.52;15.28;;;;;;;14.47;93.26;99541.53;1646387;86;21245;-68
2021/05/01 05:19:00;;;;;;;17.00;13.53;;;;;;;14.54;92.89;99537.42;1643618;87;21217;-66
2021/05/01 05:21:28;;;;;;;16.95;14.15;;;;;;;14.60;92.64;99543.63;1643720;87;21198;-67
2021/05/01 05:23:58;;;;;;;18.42;14.28;;;;;;;14.65;92.32;99540.88;1625972;87;22079;-67
2021/05/01 05:26:26;;;;;;;17.37;14.43;;;;;;;14.71;91.96;99541.13;1652472;86;21159;-66
2021/05/01 05:28:54;;;;;;;18.40;14.15;;;;;;;14.75;91.67;99541.64;1653890;86;21172;-66
2021/05/01 05:31:22;;;;;;;17.02;15.18;;;;;;;14.86;91.46;99546.45;1658721;85;21170;-67
2021/05/01 05:33:51;;;;;;;17.52;15.72;;;;;;;14.93;91.05;99547.46;1643100;85;21187;-65
2021/05/01 05:36:21;;;;;;;28.47;14.55;;;;;;;14.98;90.86;99542.02;1653805;86;22025;-66
2021/05/01 05:38:48;;;;;;;17.45;12.95;;;;;;;15.04;90.56;99547.12;1624594;88;21218;-65
2021/05/01 05:41:17;;;;;;;20.55;16.67;;;;;;;15.11;90.13;99540.81;1623639;88;21246;-66
2021/05/01 05:43:45;;;;;;;20.77;15.23;;;;;;;15.19;89.79;99548.36;1651639;85;21219;-67
2021/05/01 05:46:14;;;;;;;14.98;11.53;;;;;;;15.28;89.45;99545.84;1649907;87;21173;-68
2021/05/01 05:48:42;;;;;;;15.30;13.35;;;;;;;15.36;88.97;99543.05;1649947;87;22369;-67
2021/05/01 05:51:10;;;;;;;15.23;13.62;;;;;;;15.42;88.26;99545.45;1651823;85;21212;-69
2021/05/01 05:53:38;;;;;;;13.93;12.43;;;;;;;15.45;87.39;99548.93;1668090;85;21149;-69
2021/05/01 05:56:07;;;;;;;14.07;11.55;;;;;;;15.48;87.09;99547.57;1640418;87;21189;-67
2021/05/01 05:58:36;;;;;;;16.50;12.45;;;;;;;15.53;86.74;99546.20;1640551;87;22341;-66
2021/05/01 06:01:03;;;;;;;14.15;11.83;;;;;;;15.57;86.46;99549.41;1629949;87;21433;-67
2021/05/01 06:03:32;;;;;;;13.88;11.78;;;;;;;15.65;86.26;99552.84;1624726;88;21183;-66
2021/05/01 06:06:07;;;;;;;14.28;12.75;;;;;;;15.77;85.84;99548.94;1624848;88;21163;-68
2021/05/01 06:08:36;;;;;;;15.32;11.45;;;;;;;15.84;85.14;99558.89;1624828;88;21214;-67
2021/05/01 06:11:06;;;;;;;13.95;11.60;;;;;;;15.86;84.57;99556.16;1602666;88;21176;-66
2021/05/01 06:13:35;;;;;;;13.48;11.95;;;;;;;15.89;84.69;99565.06;1660920;85;22348;-68
2021/05/01 06:16:05;;;;;;;11.55;10.28;;;;;;;15.92;84.54;99567.77;1630119;87;21218;-69
2021/05/01 06:18:36;;;;;;;17.27;13.15;;;;;;;16.00;84.68;99573.91;1654192;85;21685;-67
2021/05/01 06:21:05;;;;;;;18.20;13.30;;;;;;;16.06;84.56;99574.13;1624466;88;21147;-65
2021/05/01 06:23:33;;;;;;;15.18;12.65;;;;;;;16.11;84.55;99571.36;1632276;86;21196;-68
2021/05/01 06:26:01;;;;;;;14.53;11.65;;;;;;;16.16;84.08;99565.06;1653649;86;22503;-70
2021/05/01 06:28:29;;;;;;;14.95;11.57;;;;;;;16.18;83.59;99559.59;1526736;90;21187;-65
2021/05/01 06:31:02;;;;;;;17.15;11.33;;;;;;;16.18;82.69;99565.02;1586111;86;21193;-66
2021/05/01 06:33:30;;;;;;;;;;;;;;;16.21;82.26;99575.28;1632211;88;21257;-67
2021/05/01 06:35:58;;;;;;;12.85;10.63;;;;;;;16.25;82.17;99566.03;1604156;88;20318;-65
2021/05/01 06:38:28;;;;;;;17.65;12.35;;;;;;;16.29;81.64;99571.95;1654178;86;21586;-66
2021/05/01 06:40:59;;;;;;;13.88;11.83;;;;;;;16.30;80.91;99579.55;1651059;86;21259;-66
2021/05/01 06:43:48;;;;;;;14.05;12.28;;;;;;;16.28;81.04;99585.25;1627467;88;21191;-68
2021/05/01 06:46:18;;;;;;;17.17;13.28;;;;;;;16.29;81.15;99584.70;1579970;89;21631;-67
2021/05/01 06:48:50;;;;;;;16.37;12.93;;;;;;;16.32;81.13;99588.19;1604585;89;21178;-67
2021/05/01 06:51:18;;;;;;;14.40;12.18;;;;;;;16.37;81.00;99586.77;1599579;88;22131;-65
2021/05/01 06:53:47;;;;;;;13.45;11.50;;;;;;;16.43;80.46;99590.50;1654141;85;21235;-67
2021/05/01 06:56:15;;;;;;;15.40;13.43;;;;;;;16.47;79.21;99589.36;1655420;86;21144;-65
2021/05/01 06:58:42;;;;;;;16.95;13.05;;;;;;;16.52;79.27;99592.83;1655485;85;21220;-65
2021/05/01 07:01:12;;;;;;;12.65;11.33;;;;;;;16.56;79.64;99594.40;1649110;86;21181;-68
2021/05/01 07:03:44;;;;;;;11.83;10.63;;;;;;;16.56;77.53;99600.64;1617207;88;21370;-67
2021/05/01 07:06:14;;;;;;;11.18;9.35;;;;;;;16.62;76.55;99597.89;1604225;89;21235;-66
2021/05/01 07:08:42;;;;;;;11.80;10.03;;;;;;;16.71;74.85;99608.36;1609677;86;21230;-64
2021/05/01 07:11:12;;;;;;;12.68;9.83;;;;;;;16.76;73.80;99594.17;1629975;88;21167;-65
2021/05/01 07:13:40;;;;;;;12.45;8.65;;;;;;;16.84;73.61;99601.65;1630354;88;21128;-67
2021/05/01 07:16:10;;;;;;;9.30;8.15;;;;;;;16.90;72.07;99593.70;1630327;86;21437;-64
2021/05/01 07:18:41;;;;;;;11.38;9.40;;;;;;;16.95;71.17;99596.34;1631242;86;21224;-64
2021/05/01 07:21:09;;;;;;;8.48;7.47;;;;;;;16.99;69.83;99595.19;1650645;86;21656;-66
2021/05/01 07:23:37;;;;;;;11.78;9.85;;;;;;;17.03;69.26;99594.86;1656136;85;21181;-65
2021/05/01 07:26:05;;;;;;;11.73;9.53;;;;;;;17.08;69.33;99604.84;1649164;85;21708;-65
2021/05/01 07:28:37;;;;;;;11.15;9.43;;;;;;;17.09;68.91;99599.13;1647209;87;22334;-66
2021/05/01 07:31:06;;;;;;;9.25;8.00;;;;;;;17.14;68.33;99592.80;1652734;86;21204;-64
2021/05/01 07:33:46;;;;;;;11.63;7.80;;;;;;;17.18;67.05;99595.18;1624898;87;21162;-63
2021/05/01 07:36:33;;;;;;;6.65;5.95;;;;;;;17.22;63.21;99588.85;1624811;88;21147;-66
2021/05/01 07:39:01;;;;;;;8.35;6.37;;;;;;;17.27;60.00;99595.57;1645953;86;21658;-65
2021/05/01 07:41:32;;;;;;;10.15;6.42;;;;;;;17.33;57.34;99593.58;1637214;87;21235;-65
2021/05/01 07:43:59;;;;;;;7.05;5.95;;;;;;;17.39;56.26;99589.14;1645726;87;22247;-65
2021/05/01 07:46:31;;;;;;;6.60;5.90;;;;;;;17.44;55.34;99593.13;1628946;86;21200;-63
2021/05/01 07:48:59;;;;;;;5.90;5.35;;;;;;;17.50;54.56;99593.86;1627180;88;21065;-67
2021/05/01 07:51:29;;;;;;;6.87;6.17;;;;;;;17.57;52.18;99594.82;1627208;86;21660;-67
2021/05/01 07:53:58;;;;;;;10.05;6.95;;;;;;;17.63;51.15;99597.20;1625155;88;21658;-66
2021/05/01 07:56:28;;;;;;;10.00;6.37;;;;;;;17.70;51.41;99596.79;1627164;88;21211;-67
2021/05/01 07:58:56;;;;;;;7.12;6.35;;;;;;;17.76;51.91;99590.16;1627677;87;21070;-65
2021/05/01 08:01:29;;;;;;;6.05;5.15;;;;;;;17.80;52.04;99583.82;1641891;86;21212;-66
2021/05/01 08:03:57;;;;;;;7.60;4.85;;;;;;;17.85;52.15;99586.45;1628829;86;21665;-66
2021/05/01 08:06:26;;;;;;;5.72;4.70;;;;;;;17.92;49.46;99589.34;1629986;87;21230;-66
2021/05/01 08:08:55;;;;;;;5.50;4.45;;;;;;;17.99;47.92;99591.91;1628172;86;21708;-67
2021/05/01 08:11:23;;;;;;;5.40;3.98;;;;;;;18.05;46.94;99586.62;1639774;87;21140;-66
2021/05/01 08:13:50;;;;;;;6.92;3.52;;;;;;;18.12;45.23;99584.33;1641968;87;21197;-66
2021/05/01 08:16:18;;;;;;;7.45;4.22;;;;;;;18.20;41.96;99595.05;1626886;86;21236;-66
2021/05/01 08:18:46;;;;;;;4.22;3.10;;;;;;;18.25;39.43;99588.15;1630652;86;22018;-67
2021/05/01 08:21:13;;;;;;;5.72;3.42;;;;;;;18.33;39.52;99586.62;1627321;87;21116;-66
2021/05/01 08:23:42;;;;;;;4.10;3.70;;;;;;;18.40;38.13;99583.77;1623612;88;21168;-67
2021/05/01 08:26:09;;;;;;;4.30;3.90;;;;;;;18.50;38.73;99590.36;1617369;88;21213;-65
2021/05/01 08:28:40;;;;;;;6.10;3.95;;;;;;;18.57;38.38;99597.58;1617286;88;21164;-65
2021/05/01 08:31:10;;;;;;;3.98;3.42;;;;;;;18.64;37.58;99590.37;1629819;88;21753;-65
2021/05/01 08:33:38;;;;;;;4.67;3.55;;;;;;;18.70;38.05;99600.05;1629854;88;21215;-66
2021/05/01 08:36:07;;;;;;;6.62;3.95;;;;;;;18.79;38.49;99602.86;1629922;86;21212;-66
2021/05/01 08:38:38;;;;;;;4.47;4.03;;;;;;;18.86;38.40;99605.41;1646554;86;21168;-67
2021/05/01 08:41:06;;;;;;;4.05;3.30;;;;;;;18.94;36.53;99594.34;1663657;85;21197;-66
2021/05/01 08:43:36;;;;;;;5.35;3.22;;;;;;;19.03;37.03;99604.22;1630210;85;21656;-64
2021/05/01 08:46:14;;;;;;;4.75;3.52;;;;;;;19.12;37.24;99614.63;1643483;87;21177;-66
2021/05/01 08:48:44;;;;;;;3.37;3.08;;;;;;;19.20;36.02;99623.98;1629516;88;21160;-69
2021/05/01 08:51:13;;;;;;;3.67;3.10;;;;;;;19.27;35.43;99609.94;1629512;88;21230;-67
2021/05/01 08:53:42;;;;;;;3.27;2.98;;;;;;;19.31;33.68;99612.30;1629507;88;21200;-67
2021/05/01 08:56:11;;;;;;;5.35;4.37;;;;;;;19.35;35.45;99600.45;1629516;88;22357;-68
2021/05/01 08:58:39;;;;;;;4.00;3.33;;;;;;;19.40;35.39;99615.89;1630940;86;21242;-66
2021/05/01 09:01:08;;;;;;;5.40;4.00;;;;;;;19.46;35.75;99610.59;1641124;87;21615;-66
2021/05/01 09:03:36;;;;;;;9.43;3.85;;;;;;;19.51;35.59;99602.28;1619608;88;21700;-67
2021/05/01 09:06:06;;;;;;;6.00;4.53;;;;;;;19.55;36.25;99611.45;1659330;86;21192;-66
2021/05/01 09:08:34;;;;;;;4.20;3.80;;;;;;;19.63;36.22;99615.34;1624470;87;21354;-65
2021/05/01 09:11:04;;;;;;;6.22;4.25;;;;;;;19.69;35.90;99610.83;1587849;88;21184;-67
2021/05/01 09:13:33;;;;;;;6.37;4.67;;;;;;;19.78;35.83;99611.68;1646458;86;21187;-65
2021/05/01 09:16:07;;;;;;;6.55;4.78;;;;;;;19.83;35.88;99612.91;1655318;86;21156;-65
2021/05/01 09:21:31;;;;;;;9.58;4.25;;;;;;;20.06;34.25;99604.11;1846641;76;22775;-66
2021/05/01 09:23:58;;;;;;;5.10;4.33;;;;;;;20.00;34.52;99611.63;1800711;78;21524;-65
2021/05/01 09:26:41;;;;;;;6.10;4.55;;;;;;;20.01;35.59;99617.34;1721540;82;21196;-66
2021/05/01 09:29:10;;;;;;;4.72;4.33;;;;;;;20.10;35.49;99618.73;1750145;80;21057;-67
2021/05/01 09:31:48;;;;;;;5.37;4.55;;;;;;;20.18;35.33;99624.02;1749825;81;20943;-67
2021/05/01 09:34:18;;;;;;;5.12;4.62;;;;;;;20.20;36.02;99623.92;1752241;81;21035;-66
2021/05/01 09:36:45;;;;;;;11.63;4.80;;;;;;;20.26;35.93;99613.12;1794611;79;21617;-64
2021/05/01 09:39:16;;;;;;;5.45;4.05;;;;;;;20.30;36.16;99616.02;1786056;79;21342;-66
2021/05/01 09:41:45;;;;;;;6.33;5.30;;;;;;;20.35;36.57;99626.83;1807198;79;20991;-66
2021/05/01 09:44:16;;;;;;;6.30;4.37;;;;;;;20.39;36.44;99618.24;1793718;79;21598;-65
2021/05/01 09:46:48;;;;;;;7.65;3.75;;;;;;;20.43;36.58;99614.56;1799211;79;21128;-65
2021/05/01 09:49:21;;;;;;;4.43;4.03;;;;;;;20.50;36.01;99628.33;1796536;79;21145;-66
2021/05/01 09:52:00;;;;;;;5.80;5.10;;;;;;;20.51;35.26;99617.09;1803681;79;21369;-65
2021/05/01 09:54:34;;;;;;;6.97;4.75;;;;;;;20.48;35.67;99606.00;1843975;77;21034;-66
2021/05/01 09:57:05;;;;;;;3.87;3.52;;;;;;;20.51;35.89;99614.36;1789339;79;21007;-67
2021/05/01 09:59:44;;;;;;;5.22;4.72;;;;;;;20.61;35.37;99611.90;1794164;79;21126;-65
2021/05/01 10:02:15;;;;;;;4.15;3.75;;;;;;;20.65;35.11;99616.41;1795348;79;21657;-66
2021/05/01 10:05:05;;;;;;;7.15;4.47;;;;;;;20.64;35.27;99611.25;1795857;79;21438;-69
2021/05/01 10:07:33;;;;;;;5.55;4.78;;;;;;;20.71;35.40;99606.94;1781539;79;21161;-67
2021/05/01 10:10:02;;;;;;;6.22;4.92;;;;;;;20.80;35.12;99602.29;1787811;79;21114;-68
2021/05/01 10:12:37;;;;;;;3.58;3.27;;;;;;;20.93;34.70;99608.73;1744772;80;21149;-67
2021/05/01 10:15:15;;;;;;;5.65;4.83;;;;;;;21.05;34.51;99606.74;1770275;80;21184;-66
2021/05/01 10:17:46;;;;;;;6.58;5.97;;;;;;;21.13;34.46;99612.77;1762427;81;21466;-68
2021/05/01 10:20:15;;;;;;;5.05;4.58;;;;;;;21.19;34.12;99601.39;1814278;78;21575;-66
2021/05/01 10:22:46;;;;;;;5.85;5.05;;;;;;;21.24;33.63;99604.52;1803741;79;21126;-66
2021/05/01 10:25:26;;;;;;;5.20;4.78;;;;;;;21.21;33.94;99603.22;1788226;79;21022;-67
2021/05/01 10:28:06;;;;;;;11.68;7.55;;;;;;;21.20;33.97;99607.08;1791076;79;21737;-67
2021/05/01 10:30:52;;;;;;;4.53;4.12;;;;;;;21.24;34.18;99605.33;1799132;79;21311;-65
2021/05/01 10:33:33;;;;;;;6.17;4.95;;;;;;;21.25;33.81;99602.81;1785458;77;21126;-65
2021/05/01 10:36:24;;;;;;;5.08;4.62;;;;;;;21.09;33.84;99585.83;1793310;79;21638;-66
2021/05/01 10:39:01;;;;;;;5.75;4.22;;;;;;;21.06;34.48;99591.92;1783557;79;21631;-71
2021/05/01 10:41:36;;;;;;;7.60;4.60;;;;;;;21.12;34.05;99598.84;1806362;79;21499;-70
2021/05/01 10:44:07;;;;;;;4.95;4.45;;;;;;;21.08;34.15;99591.05;1800877;79;21380;-68
2021/05/01 10:46:41;;;;;;;5.37;4.72;;;;;;;21.07;34.86;99590.80;1794766;79;21177;-72
2021/05/01 10:49:10;;;;;;;6.45;4.35;;;;;;;21.17;34.81;99589.95;1792547;79;26517;-69
2021/05/01 10:51:46;;;;;;;4.47;4.08;;;;;;;21.29;34.14;99613.94;1782890;79;21102;-66
2021/05/01 10:54:19;;;;;;;4.55;4.15;;;;;;;21.36;33.99;99607.95;1788003;79;21102;-65
2021/05/01 10:56:52;;;;;;;9.28;4.80;;;;;;;21.39;33.95;99609.48;1808921;79;21157;-66
2021/05/01 11:02:02;;;;;;;5.78;3.72;;;;;;;21.55;33.89;99596.11;1844854;76;22966;-66
2021/05/01 11:04:32;;;;;;;5.12;3.80;;;;;;;21.63;33.98;99593.34;1758147;80;20975;-68
2021/05/01 11:07:13;;;;;;;4.58;4.17;;;;;;;21.78;33.61;99593.95;1756073;80;21404;-66
2021/05/01 11:09:43;;;;;;;6.50;3.80;;;;;;;21.85;33.14;99583.32;1761406;80;21034;-65
2021/05/01 11:12:22;;;;;;;4.35;3.87;;;;;;;21.85;33.45;99582.76;1781143;80;20948;-66
2021/05/01 11:15:01;;;;;;;3.87;3.40;;;;;;;21.97;33.33;99577.98;1760230;79;21566;-68
2021/05/01 11:17:44;;;;;;;4.05;3.72;;;;;;;22.12;32.31;99594.69;1769924;80;20944;-68
2021/05/01 11:20:16;;;;;;;5.75;4.28;;;;;;;22.16;31.61;99585.23;1770866;80;21422;-67
2021/05/01 11:22:48;;;;;;;6.67;4.15;;;;;;;22.22;31.63;99584.49;1784404;80;21543;-67
2021/05/01 11:25:17;;;;;;;5.17;4.67;;;;;;;22.29;31.66;99577.38;1784158;80;21031;-68
2021/05/01 11:27:47;;;;;;;7.17;3.50;;;;;;;22.39;31.77;99576.20;1763308;80;21176;-66
2021/05/01 11:30:19;;;;;;;5.15;4.50;;;;;;;22.54;31.58;99570.16;1768020;80;21169;-67
2021/05/01 11:32:47;;;;;;;15.38;5.95;;;;;;;22.47;31.61;99574.77;1783927;80;21204;-67
2021/05/01 11:35:18;;;;;;;6.35;3.60;;;;;;;22.38;31.29;99578.14;1764643;80;21672;-67
2021/05/01 11:37:56;;;;;;;6.22;4.70;;;;;;;22.24;31.72;99574.83;1756199;80;21101;-71
2021/05/01 11:40:30;;;;;;;5.35;4.20;;;;;;;22.15;32.38;99576.23;1770252;80;20963;-69
2021/05/01 11:42:59;;;;;;;5.30;4.25;;;;;;;22.22;33.16;99564.75;1786744;80;21137;-69